Terminal Aerodrome Forecast
Issued by NWS

Home | Current Version | Previous Version | Text Only | Print | Product List | Glossary On
Versions: 1 2 3 4 5 6 7 8 9 10 11 12 13
000
FTUS42 TJSJ 012300
TAFJBQ
TAF
TJBQ 012337Z 0200/0224 10006KT P6SM BKN040
     FM020300 00000KT P6SM SKC
     FM021350 07011KT P6SM FEW040
     FM021750 07011KT P6SM VCTS BKN040CB
     FM022250 10006KT P6SM SCT040=

USA.gov is the U.S. government's official web portal to all federal, state and local government web resources and services.